METAR/TAF

Belfast City Airport
BELFAST HARBOUR
Metar
EGAC 240120Z AUTO 18007KT 9999 SCT014/// BKN022/// 10/09 Q0999

01:20 UTC

Wind: 180° 7kt

Visibility: 9999 m

Sky: SCT 1400 ft

Temp: 10 deg C / 50 deg F

Dewpoint: 9 deg C / 48.2 deg F

Pressure: 999 hPa

Belfast International Airport
BELFAST/ALDERGRO
Metar
EGAA 240120Z 20008KT 9999 FEW028 10/09 Q0999

01:20 UTC

Wind: 200° 8kt

Visibility: 9999 m

Sky: FEW 2800 ft

Temp: 10 deg C / 50 deg F

Dewpoint: 9 deg C / 48.2 deg F

Pressure: 999 hPa

TAF
TAF EGAA 232257Z 2400/2424 21012KT 9999 SCT020 PROB40 TEMPO 2400/2410 BKN008 BECMG 2411/2414 30012KT PROB40 TEMPO 2412/2415 7000 SHRA BKN014 BECMG 2419/2422 24005KT
Print Friendly, PDF & Email